createdAt,value
2017-08-13T00:00:53.282Z,1001.32
2017-08-13T00:01:53.279Z,1001.33
2017-08-13T00:02:53.242Z,1001.37
2017-08-13T00:03:53.237Z,1001.32
2017-08-13T00:04:53.396Z,1001.32
2017-08-13T00:05:53.272Z,1001.35
2017-08-13T00:06:54.848Z,1001.32
2017-08-13T00:07:53.224Z,1001.39
2017-08-13T00:08:53.194Z,1001.27
2017-08-13T00:09:53.290Z,1001.21
2017-08-13T00:10:53.242Z,1001.30
2017-08-13T00:11:53.246Z,1001.27
2017-08-13T00:12:53.217Z,1001.20
2017-08-13T00:13:53.181Z,1001.26
2017-08-13T00:14:53.241Z,1001.32
2017-08-13T00:15:53.239Z,1001.28
2017-08-13T00:16:53.250Z,1001.32
2017-08-13T00:17:53.310Z,1001.28
2017-08-13T00:18:53.248Z,1001.29
2017-08-13T00:19:53.741Z,1001.20
2017-08-13T00:20:53.233Z,1001.23
2017-08-13T00:21:53.235Z,1001.19
2017-08-13T00:22:53.243Z,1001.27
2017-08-13T00:23:53.223Z,1001.24
2017-08-13T00:24:53.228Z,1001.20
2017-08-13T00:25:53.246Z,1001.14
2017-08-13T00:26:53.261Z,1001.16
2017-08-13T00:27:53.182Z,1001.15
2017-08-13T00:28:53.901Z,1001.16
2017-08-13T00:29:53.244Z,1001.23
2017-08-13T00:30:53.219Z,1001.19
2017-08-13T00:31:53.276Z,1001.14
2017-08-13T00:32:53.766Z,1001.21
2017-08-13T00:33:53.255Z,1001.17
2017-08-13T00:34:53.259Z,1001.18
2017-08-13T00:35:53.254Z,1001.21
2017-08-13T00:36:53.756Z,1001.10
2017-08-13T00:37:53.273Z,1001.14
2017-08-13T00:38:53.196Z,1001.11
2017-08-13T00:39:53.270Z,1000.99
2017-08-13T00:40:53.760Z,1001.03
2017-08-13T00:41:53.243Z,1001.03
2017-08-13T00:42:53.301Z,1001.03
2017-08-13T00:43:53.176Z,1001.08
2017-08-13T00:44:53.254Z,1001.03
2017-08-13T00:45:53.249Z,1001.03
2017-08-13T00:46:53.180Z,1001.02
2017-08-13T00:47:53.222Z,1001.10
2017-08-13T00:48:53.339Z,1001.08
2017-08-13T00:49:53.202Z,1001.17
2017-08-13T00:50:53.278Z,1001.10
2017-08-13T00:51:53.271Z,1001.14
2017-08-13T00:52:53.784Z,1001.15
2017-08-13T00:53:53.217Z,1001.11
2017-08-13T00:54:53.786Z,1001.11
2017-08-13T00:55:53.273Z,1001.14
2017-08-13T00:56:53.221Z,1001.11
2017-08-13T00:57:53.308Z,1001.07
2017-08-13T00:58:53.790Z,1001.13
2017-08-13T00:59:53.280Z,1001.19
2017-08-13T01:00:53.227Z,1001.09
2017-08-13T01:01:53.249Z,1001.09
2017-08-13T01:02:53.268Z,1001.09
2017-08-13T01:03:53.253Z,1001.19
2017-08-13T01:04:53.204Z,1001.04
2017-08-13T01:05:53.213Z,1001.16
2017-08-13T01:06:53.250Z,1001.21
2017-08-13T01:07:53.215Z,1001.14
2017-08-13T01:08:53.278Z,1001.19
2017-08-13T01:09:53.184Z,1001.20
2017-08-13T01:10:53.249Z,1001.14
2017-08-13T01:11:53.812Z,1001.10
2017-08-13T01:12:53.210Z,1001.16
2017-08-13T01:13:54.309Z,1001.18
2017-08-13T01:14:53.227Z,1001.14
2017-08-13T01:15:53.240Z,1001.12
2017-08-13T01:16:53.813Z,1001.11
2017-08-13T01:17:53.816Z,1001.11
2017-08-13T01:18:54.324Z,1001.09
2017-08-13T01:19:53.195Z,1001.02
2017-08-13T01:20:53.208Z,1001.08
2017-08-13T01:21:53.185Z,1001.07
2017-08-13T01:22:53.203Z,1001.07
2017-08-13T01:23:54.824Z,1001.07
2017-08-13T01:24:54.848Z,1001.06
2017-08-13T01:25:53.223Z,1001.09
2017-08-13T01:26:53.262Z,1001.03
2017-08-13T01:27:53.233Z,1001.07
2017-08-13T01:28:53.299Z,1001.05
2017-08-13T01:29:53.181Z,1001.07
2017-08-13T01:30:53.226Z,1001.11
2017-08-13T01:31:53.226Z,1001.08
2017-08-13T01:32:53.239Z,1001.06
2017-08-13T01:33:53.256Z,1001.06
2017-08-13T01:34:53.840Z,1001.14
2017-08-13T01:35:53.196Z,1001.12
2017-08-13T01:36:53.259Z,1001.14
2017-08-13T01:37:53.220Z,1001.08
2017-08-13T01:38:53.918Z,1001.12
2017-08-13T01:39:53.272Z,1001.10
2017-08-13T01:40:53.900Z,1001.10
2017-08-13T01:41:53.852Z,1001.14
2017-08-13T01:42:53.854Z,1001.10
2017-08-13T01:43:53.257Z,1001.11
2017-08-13T01:44:53.854Z,1001.13
2017-08-13T01:45:53.179Z,1001.10
2017-08-13T01:46:53.206Z,1001.07
2017-08-13T01:47:53.278Z,1001.05
2017-08-13T01:48:53.311Z,1001.09
2017-08-13T01:49:53.887Z,1001.08
2017-08-13T01:50:54.869Z,1001.07
2017-08-13T01:51:53.261Z,1001.16
2017-08-13T01:52:53.221Z,1001.14
2017-08-13T01:53:53.202Z,1001.12
2017-08-13T01:54:53.233Z,1001.11
2017-08-13T01:55:53.211Z,1001.11
2017-08-13T01:56:53.236Z,1001.18
2017-08-13T01:57:54.875Z,1001.13
2017-08-13T01:58:53.237Z,1001.12
2017-08-13T01:59:53.226Z,1001.08
2017-08-13T02:00:53.281Z,1001.00
2017-08-13T02:01:53.264Z,1001.00
2017-08-13T02:02:53.248Z,1001.05
2017-08-13T02:03:53.888Z,1001.00
2017-08-13T02:04:53.278Z,1001.07
2017-08-13T02:05:53.304Z,1001.04
2017-08-13T02:06:53.205Z,1001.05
2017-08-13T02:07:53.234Z,1001.04
2017-08-13T02:08:53.201Z,1000.98
2017-08-13T02:09:53.897Z,1001.02
2017-08-13T02:10:53.187Z,1001.06
2017-08-13T02:11:53.203Z,1001.06
2017-08-13T02:12:53.200Z,1001.07
2017-08-13T02:13:53.206Z,1001.03
2017-08-13T02:14:53.228Z,1000.99
2017-08-13T02:15:53.901Z,1001.04
2017-08-13T02:16:53.940Z,1000.90
2017-08-13T02:17:53.193Z,1000.83
2017-08-13T02:18:53.286Z,1000.88
2017-08-13T02:19:53.214Z,1000.97
2017-08-13T02:20:54.914Z,1000.95
2017-08-13T02:21:53.273Z,1000.95
2017-08-13T02:22:53.237Z,1000.99
2017-08-13T02:23:53.209Z,1000.94
2017-08-13T02:24:53.918Z,1001.04
2017-08-13T02:25:53.192Z,1001.03
2017-08-13T02:26:53.257Z,1001.02
2017-08-13T02:27:53.163Z,1001.13
2017-08-13T02:28:53.176Z,1001.06
2017-08-13T02:29:53.924Z,1001.05
2017-08-13T02:30:53.149Z,1001.06
2017-08-13T02:31:53.238Z,1001.05
2017-08-13T02:32:53.246Z,1000.98
2017-08-13T02:33:53.946Z,1001.04
2017-08-13T02:34:53.330Z,1001.04
2017-08-13T02:35:53.225Z,1001.02
2017-08-13T02:36:53.211Z,1001.06
2017-08-13T02:37:53.205Z,1001.00
2017-08-13T02:38:53.211Z,1001.02
2017-08-13T02:39:53.219Z,1000.92
2017-08-13T02:40:53.220Z,1000.98
2017-08-13T02:41:53.225Z,1000.96
2017-08-13T02:42:53.182Z,1000.94
2017-08-13T02:43:53.203Z,1000.97
2017-08-13T02:44:53.227Z,1000.98
2017-08-13T02:45:53.222Z,1000.90
2017-08-13T02:46:53.148Z,1000.98
2017-08-13T02:47:54.950Z,1001.04
2017-08-13T02:48:53.192Z,1001.12
2017-08-13T02:49:53.218Z,1001.05
2017-08-13T02:50:53.251Z,1001.10
2017-08-13T02:51:54.195Z,1001.10
2017-08-13T02:52:53.229Z,1001.08
2017-08-13T02:53:53.202Z,1001.05
2017-08-13T02:54:53.202Z,1001.06
2017-08-13T02:55:53.262Z,1000.99
2017-08-13T02:56:53.155Z,1001.00
2017-08-13T02:57:53.188Z,1000.98
2017-08-13T02:58:53.179Z,1000.98
2017-08-13T02:59:53.205Z,1001.01
2017-08-13T03:00:53.195Z,1000.98
2017-08-13T03:01:54.973Z,1000.95
2017-08-13T03:02:53.203Z,1000.94
2017-08-13T03:03:53.156Z,1001.01
2017-08-13T03:04:53.984Z,1001.05
2017-08-13T03:05:53.279Z,1001.08
2017-08-13T03:06:53.250Z,1001.06
2017-08-13T03:07:53.191Z,1001.05
2017-08-13T03:08:53.165Z,1001.02
2017-08-13T03:09:53.177Z,1000.97
2017-08-13T03:10:53.226Z,1000.99
2017-08-13T03:11:53.147Z,1000.96
2017-08-13T03:12:53.187Z,1000.98
2017-08-13T03:13:53.172Z,1000.97
2017-08-13T03:14:53.215Z,1000.95
2017-08-13T03:15:53.175Z,1000.95
2017-08-13T03:16:54.991Z,1000.89
2017-08-13T03:17:53.184Z,1000.92
2017-08-13T03:18:54.017Z,1000.92
2017-08-13T03:19:53.337Z,1000.89
2017-08-13T03:20:53.185Z,1000.90
2017-08-13T03:21:53.647Z,1000.86
2017-08-13T03:22:54.000Z,1000.85
2017-08-13T03:23:53.203Z,1000.87
2017-08-13T03:24:53.171Z,1000.89
2017-08-13T03:25:53.129Z,1000.91
2017-08-13T03:26:53.186Z,1000.87
2017-08-13T03:27:54.009Z,1000.87
2017-08-13T03:28:54.210Z,1000.87
2017-08-13T03:29:53.161Z,1000.92
2017-08-13T03:30:53.238Z,1000.95
2017-08-13T03:31:53.207Z,1000.92
2017-08-13T03:32:54.023Z,1000.92
2017-08-13T03:33:53.226Z,1000.94
2017-08-13T03:34:53.163Z,1001.01
2017-08-13T03:35:53.209Z,1001.05
2017-08-13T03:36:53.278Z,1001.08
2017-08-13T03:37:53.169Z,1000.90
2017-08-13T03:38:53.168Z,1001.08
2017-08-13T03:39:54.025Z,1001.11
2017-08-13T03:40:55.035Z,1001.11
2017-08-13T03:41:53.197Z,1001.12
2017-08-13T03:42:53.192Z,1001.18
2017-08-13T03:43:53.196Z,1001.16
2017-08-13T03:44:53.209Z,1001.17
2017-08-13T03:45:53.212Z,1001.13
2017-08-13T03:46:54.034Z,1001.15
2017-08-13T03:47:53.211Z,1001.11
2017-08-13T03:48:53.163Z,1001.03
2017-08-13T03:49:53.210Z,1001.10
2017-08-13T03:50:54.064Z,1001.09
2017-08-13T03:51:54.044Z,1001.05
2017-08-13T03:52:53.155Z,1001.21
2017-08-13T03:53:53.234Z,1001.20
2017-08-13T03:54:53.161Z,1001.21
2017-08-13T03:55:53.161Z,1001.24
2017-08-13T03:56:53.798Z,1001.17
2017-08-13T03:57:53.186Z,1001.23
2017-08-13T03:58:53.168Z,1001.20
2017-08-13T03:59:53.193Z,1001.16
2017-08-13T04:00:53.130Z,1001.27
2017-08-13T04:01:53.157Z,1001.21
2017-08-13T04:02:53.194Z,1001.26
2017-08-13T04:03:53.245Z,1001.22
2017-08-13T04:04:54.061Z,1001.23
2017-08-13T04:05:53.177Z,1001.33
2017-08-13T04:06:54.067Z,1001.33
2017-08-13T04:07:53.205Z,1001.35
2017-08-13T04:08:53.194Z,1001.34
2017-08-13T04:09:53.136Z,1001.24
2017-08-13T04:10:53.177Z,1001.33
2017-08-13T04:11:53.104Z,1001.29
2017-08-13T04:12:54.100Z,1001.33
2017-08-13T04:13:53.124Z,1001.31
2017-08-13T04:14:53.156Z,1001.37
2017-08-13T04:15:53.195Z,1001.34
2017-08-13T04:16:53.188Z,1001.38
2017-08-13T04:17:53.222Z,1001.37
2017-08-13T04:18:53.142Z,1001.40
2017-08-13T04:19:53.197Z,1001.40
2017-08-13T04:20:53.158Z,1001.38
2017-08-13T04:21:53.178Z,1001.37
2017-08-13T04:22:53.321Z,1001.40
2017-08-13T04:23:53.189Z,1001.47
2017-08-13T04:24:53.180Z,1001.39
2017-08-13T04:25:53.594Z,1001.40
2017-08-13T04:26:53.118Z,1001.34
2017-08-13T04:27:53.213Z,1001.34
2017-08-13T04:28:53.174Z,1001.40
2017-08-13T04:29:54.098Z,1001.46
2017-08-13T04:30:53.185Z,1001.56
2017-08-13T04:31:53.099Z,1001.56
2017-08-13T04:32:53.139Z,1001.53
2017-08-13T04:33:53.182Z,1001.47
2017-08-13T04:34:53.118Z,1001.52
2017-08-13T04:35:53.141Z,1001.49
2017-08-13T04:36:53.171Z,1001.53
2017-08-13T04:37:54.116Z,1001.53
2017-08-13T04:38:53.227Z,1001.56
2017-08-13T04:39:53.615Z,1001.59
2017-08-13T04:40:53.138Z,1001.60
2017-08-13T04:41:53.107Z,1001.63
2017-08-13T04:42:53.282Z,1001.64
2017-08-13T04:43:53.223Z,1001.66
2017-08-13T04:44:53.625Z,1001.64
2017-08-13T04:45:53.137Z,1001.53
2017-08-13T04:46:53.203Z,1001.60
2017-08-13T04:47:53.178Z,1001.57
2017-08-13T04:48:53.157Z,1001.56
2017-08-13T04:49:53.165Z,1001.69
2017-08-13T04:50:53.174Z,1001.63
2017-08-13T04:51:53.642Z,1001.55
2017-08-13T04:52:53.634Z,1001.65
2017-08-13T04:53:53.209Z,1001.56
2017-08-13T04:54:53.638Z,1001.60
2017-08-13T04:55:53.147Z,1001.67
2017-08-13T04:56:53.133Z,1001.60
2017-08-13T04:57:53.648Z,1001.56
2017-08-13T04:58:53.257Z,1001.70
2017-08-13T04:59:53.187Z,1001.66
2017-08-13T05:00:53.125Z,1001.60
2017-08-13T05:01:53.145Z,1001.64
2017-08-13T05:02:53.157Z,1001.58
2017-08-13T05:03:53.182Z,1001.57
2017-08-13T05:04:53.190Z,1001.55
2017-08-13T05:05:53.153Z,1001.57
2017-08-13T05:06:53.141Z,1001.58
2017-08-13T05:07:53.210Z,1001.60
2017-08-13T05:08:53.656Z,1001.59
2017-08-13T05:09:53.172Z,1001.65
2017-08-13T05:10:53.149Z,1001.65
2017-08-13T05:11:53.159Z,1001.64
2017-08-13T05:12:53.214Z,1001.65
2017-08-13T05:13:53.225Z,1001.63
2017-08-13T05:14:53.225Z,1001.69
2017-08-13T05:15:53.155Z,1001.64
2017-08-13T05:16:53.150Z,1001.69
2017-08-13T05:17:53.679Z,1001.59
2017-08-13T05:18:53.674Z,1001.70
2017-08-13T05:19:53.199Z,1001.59
2017-08-13T05:20:53.681Z,1001.62
2017-08-13T05:21:53.676Z,1001.71
2017-08-13T05:22:53.111Z,1001.64
2017-08-13T05:23:53.184Z,1001.74
2017-08-13T05:24:53.813Z,1001.65
2017-08-13T05:25:53.131Z,1001.64
2017-08-13T05:26:53.196Z,1001.68
2017-08-13T05:27:53.131Z,1001.67
2017-08-13T05:28:53.187Z,1001.59
2017-08-13T05:29:53.691Z,1001.62
2017-08-13T05:30:53.187Z,1001.64
2017-08-13T05:31:53.126Z,1001.60
2017-08-13T05:32:53.201Z,1001.72
2017-08-13T05:33:53.145Z,1001.78
2017-08-13T05:34:53.198Z,1001.82
2017-08-13T05:35:53.135Z,1001.93
2017-08-13T05:36:53.698Z,1001.94
2017-08-13T05:37:53.208Z,1001.94
2017-08-13T05:38:53.701Z,1001.93
2017-08-13T05:39:53.227Z,1001.96
2017-08-13T05:40:53.088Z,1001.94
2017-08-13T05:41:53.144Z,1001.99
2017-08-13T05:42:53.725Z,1002.04
2017-08-13T05:43:53.173Z,1002.02
2017-08-13T05:44:53.710Z,1002.01
2017-08-13T05:45:53.132Z,1002.06
2017-08-13T05:46:53.143Z,1002.07
2017-08-13T05:47:53.211Z,1002.00
2017-08-13T05:48:53.157Z,1002.01
2017-08-13T05:49:53.720Z,1002.09
2017-08-13T05:50:53.720Z,1002.04
2017-08-13T05:51:53.079Z,1002.02
2017-08-13T05:52:53.160Z,1002.03
2017-08-13T05:53:53.724Z,1002.04
2017-08-13T05:54:53.338Z,1002.05
2017-08-13T05:55:53.136Z,1001.92
2017-08-13T05:56:53.114Z,1001.93
2017-08-13T05:57:53.122Z,1001.90
2017-08-13T05:58:53.127Z,1001.89
2017-08-13T05:59:53.170Z,1001.90
2017-08-13T06:00:53.154Z,1001.95
2017-08-13T06:01:53.872Z,1002.00
2017-08-13T06:02:53.193Z,1002.01
2017-08-13T06:03:53.128Z,1002.01
2017-08-13T06:04:53.110Z,1002.13
2017-08-13T06:05:53.744Z,1002.15
2017-08-13T06:06:53.098Z,1002.08
2017-08-13T06:07:53.139Z,1001.99
2017-08-13T06:08:53.163Z,1002.02
2017-08-13T06:09:53.141Z,1002.01
2017-08-13T06:10:53.440Z,1002.00
2017-08-13T06:11:53.159Z,1001.94
2017-08-13T06:12:53.133Z,1002.08
2017-08-13T06:13:53.129Z,1002.07
2017-08-13T06:14:53.117Z,1002.03
2017-08-13T06:15:53.866Z,1002.01
2017-08-13T06:16:53.132Z,1002.09
2017-08-13T06:17:53.192Z,1002.09
2017-08-13T06:18:53.131Z,1002.03
2017-08-13T06:19:53.098Z,1002.05
2017-08-13T06:20:53.144Z,1002.12
2017-08-13T06:21:53.095Z,1002.16
2017-08-13T06:22:53.199Z,1002.14
2017-08-13T06:23:53.768Z,1002.19
2017-08-13T06:24:53.174Z,1002.14
2017-08-13T06:25:53.772Z,1002.13
2017-08-13T06:26:53.110Z,1002.12
2017-08-13T06:27:54.814Z,1002.17
2017-08-13T06:28:53.775Z,1002.21
2017-08-13T06:29:53.092Z,1002.20
2017-08-13T06:30:53.190Z,1002.27
2017-08-13T06:31:53.804Z,1002.26
2017-08-13T06:32:53.782Z,1002.37
2017-08-13T06:33:53.099Z,1002.36
2017-08-13T06:34:53.120Z,1002.38
2017-08-13T06:35:53.141Z,1002.33
2017-08-13T06:36:53.793Z,1002.09
2017-08-13T06:37:53.111Z,1001.95
2017-08-13T06:38:53.189Z,1002.08
2017-08-13T06:39:53.907Z,1002.17
2017-08-13T06:40:53.098Z,1002.20
2017-08-13T06:41:53.806Z,1002.22
2017-08-13T06:42:53.113Z,1002.08
2017-08-13T06:43:53.118Z,1002.29
2017-08-13T06:44:53.096Z,1002.41
2017-08-13T06:45:53.965Z,1002.46
2017-08-13T06:46:53.202Z,1002.37
2017-08-13T06:47:53.099Z,1002.38
2017-08-13T06:48:53.807Z,1002.40
2017-08-13T06:49:53.188Z,1002.28
2017-08-13T06:50:53.815Z,1002.35
2017-08-13T06:51:53.147Z,1002.40
2017-08-13T06:52:53.182Z,1002.34
2017-08-13T06:53:53.122Z,1002.27
2017-08-13T06:54:53.128Z,1002.24
2017-08-13T06:55:53.108Z,1002.27
2017-08-13T06:56:53.820Z,1002.41
2017-08-13T06:57:53.098Z,1002.32
2017-08-13T06:58:53.174Z,1002.20
2017-08-13T06:59:53.095Z,1002.27
2017-08-13T07:00:53.128Z,1002.36
2017-08-13T07:01:53.175Z,1002.40
2017-08-13T07:02:53.106Z,1002.43
2017-08-13T07:03:53.107Z,1002.33
2017-08-13T07:04:53.075Z,1002.23
2017-08-13T07:05:53.076Z,1002.25
2017-08-13T07:06:53.123Z,1002.33
2017-08-13T07:07:53.151Z,1002.32
2017-08-13T07:08:53.176Z,1002.21
2017-08-13T07:09:53.119Z,1002.25
2017-08-13T07:10:53.848Z,1002.30
2017-08-13T07:11:53.129Z,1002.36
2017-08-13T07:12:53.154Z,1002.34
2017-08-13T07:13:53.846Z,1002.22
2017-08-13T07:14:53.850Z,1002.20
2017-08-13T07:15:53.157Z,1002.58
2017-08-13T07:16:53.852Z,1002.77
2017-08-13T07:17:53.045Z,1002.87
2017-08-13T07:18:53.205Z,1002.61
2017-08-13T07:19:53.061Z,1002.50
2017-08-13T07:20:53.857Z,1002.41
2017-08-13T07:21:53.155Z,1002.54
2017-08-13T07:22:53.104Z,1002.57
2017-08-13T07:23:53.179Z,1002.43
2017-08-13T07:24:53.083Z,1002.22
2017-08-13T07:25:53.119Z,1002.17
2017-08-13T07:26:53.059Z,1001.98
2017-08-13T07:27:53.154Z,1002.10
2017-08-13T07:28:53.109Z,1002.44
2017-08-13T07:29:53.890Z,1002.83
2017-08-13T07:30:53.107Z,1002.80
2017-08-13T07:31:53.111Z,1002.69
2017-08-13T07:32:53.136Z,1002.46
2017-08-13T07:33:53.105Z,1002.50
2017-08-13T07:34:53.116Z,1002.39
2017-08-13T07:35:53.144Z,1002.50
2017-08-13T07:36:53.130Z,1002.67
2017-08-13T07:37:53.116Z,1002.65
2017-08-13T07:38:53.067Z,1002.30
2017-08-13T07:39:53.136Z,1002.18
2017-08-13T07:40:53.084Z,1002.44
2017-08-13T07:41:53.093Z,1002.54
2017-08-13T07:42:53.556Z,1002.52
2017-08-13T07:43:53.115Z,1002.61
2017-08-13T07:44:53.148Z,1002.73
2017-08-13T07:45:53.200Z,1002.61
2017-08-13T07:46:53.066Z,1002.83
2017-08-13T07:47:53.140Z,1002.86
2017-08-13T07:48:53.100Z,1002.93
2017-08-13T07:49:54.022Z,1003.00
2017-08-13T07:50:53.164Z,1002.83
2017-08-13T07:51:53.102Z,1002.72
2017-08-13T07:52:53.114Z,1002.61
2017-08-13T07:53:53.139Z,1002.46
2017-08-13T07:54:53.082Z,1002.31
2017-08-13T07:55:53.072Z,1002.28
2017-08-13T07:56:53.103Z,1002.51
2017-08-13T07:57:53.117Z,1002.61
2017-08-13T07:58:53.920Z,1002.72
2017-08-13T07:59:53.938Z,1002.74
2017-08-13T08:00:53.115Z,1002.87
2017-08-13T08:01:53.139Z,1002.81
2017-08-13T08:02:53.154Z,1002.70
2017-08-13T08:03:53.173Z,1002.69
2017-08-13T08:04:53.933Z,1002.60
2017-08-13T08:05:53.928Z,1002.67
2017-08-13T08:06:53.059Z,1002.49
2017-08-13T08:07:53.095Z,1002.43
2017-08-13T08:08:53.190Z,1002.43
2017-08-13T08:09:53.166Z,1002.51
2017-08-13T08:10:53.079Z,1002.71
2017-08-13T08:11:53.949Z,1002.90
2017-08-13T08:12:59.021Z,1003.11
2017-08-13T08:13:53.130Z,1003.21
2017-08-13T08:14:53.087Z,1003.21
2017-08-13T08:15:53.079Z,1002.99
2017-08-13T08:16:53.954Z,1002.95
2017-08-13T08:17:53.138Z,1002.96
2017-08-13T08:18:53.097Z,1002.89
2017-08-13T08:19:53.974Z,1002.85
2017-08-13T08:20:53.121Z,1002.83
2017-08-13T08:21:53.096Z,1002.84
2017-08-13T08:22:54.109Z,1002.87
2017-08-13T08:23:53.115Z,1002.92
2017-08-13T08:24:53.175Z,1002.75
2017-08-13T08:25:53.097Z,1002.53
2017-08-13T08:26:53.967Z,1002.55
2017-08-13T08:27:53.973Z,1002.26
2017-08-13T08:28:53.125Z,1002.10
2017-08-13T08:29:53.176Z,1002.24
2017-08-13T08:30:53.077Z,1002.16
2017-08-13T08:31:53.149Z,1002.19
2017-08-13T08:32:53.054Z,1002.37
2017-08-13T08:33:53.131Z,1002.34
2017-08-13T08:34:53.050Z,1002.35
2017-08-13T08:35:53.106Z,1002.52
2017-08-13T08:36:53.065Z,1002.86
2017-08-13T08:37:53.075Z,1002.86
2017-08-13T08:38:53.151Z,1002.98
2017-08-13T08:39:53.121Z,1003.19
2017-08-13T08:40:53.098Z,1003.22
2017-08-13T08:41:53.123Z,1003.26
2017-08-13T08:42:53.988Z,1003.27
2017-08-13T08:43:54.495Z,1003.24
2017-08-13T08:44:54.006Z,1002.94
2017-08-13T08:45:53.108Z,1002.72
2017-08-13T08:46:53.118Z,1002.66
2017-08-13T08:47:53.135Z,1002.61
2017-08-13T08:48:53.091Z,1002.55
2017-08-13T08:49:54.005Z,1002.50
2017-08-13T08:50:53.234Z,1002.29
2017-08-13T08:51:53.230Z,1002.20
2017-08-13T08:52:53.157Z,1002.40
2017-08-13T08:53:53.068Z,1002.49
2017-08-13T08:54:53.104Z,1002.52
2017-08-13T08:55:53.065Z,1002.50
2017-08-13T08:56:53.091Z,1002.47
2017-08-13T08:57:53.514Z,1002.54
2017-08-13T08:58:53.515Z,1002.57
2017-08-13T08:59:53.093Z,1002.80
2017-08-13T09:00:53.058Z,1002.78
2017-08-13T09:01:53.079Z,1002.73
2017-08-13T09:02:53.074Z,1002.65
2017-08-13T09:03:53.180Z,1002.90
2017-08-13T09:04:53.141Z,1002.87
2017-08-13T09:05:53.080Z,1002.91
2017-08-13T09:06:53.623Z,1002.81
2017-08-13T09:07:53.067Z,1002.72
2017-08-13T09:08:53.539Z,1002.77
2017-08-13T09:09:53.084Z,1002.96
2017-08-13T09:10:53.076Z,1003.20
2017-08-13T09:11:53.077Z,1003.30
2017-08-13T09:12:53.131Z,1003.30
2017-08-13T09:13:53.089Z,1003.21
2017-08-13T09:14:53.053Z,1003.23
2017-08-13T09:15:53.082Z,1003.32
2017-08-13T09:16:53.548Z,1003.20
2017-08-13T09:17:53.049Z,1003.09
2017-08-13T09:18:53.099Z,1003.01
2017-08-13T09:19:53.105Z,1002.97
2017-08-13T09:20:53.556Z,1002.86
2017-08-13T09:21:53.061Z,1002.90
2017-08-13T09:22:53.070Z,1002.80
2017-08-13T09:23:53.173Z,1002.62
2017-08-13T09:24:53.178Z,1002.60
2017-08-13T09:25:55.559Z,1002.63
2017-08-13T09:26:53.081Z,1002.58
2017-08-13T09:27:53.141Z,1002.59
2017-08-13T09:28:53.058Z,1002.59
2017-08-13T09:29:53.570Z,1002.63
2017-08-13T09:30:53.567Z,1002.56
2017-08-13T09:31:53.149Z,1002.47
2017-08-13T09:32:53.047Z,1002.54
2017-08-13T09:33:53.116Z,1002.60
2017-08-13T09:34:53.127Z,1002.56
2017-08-13T09:35:53.083Z,1002.59
2017-08-13T09:36:53.046Z,1002.53
2017-08-13T09:37:53.092Z,1002.55
2017-08-13T09:38:53.084Z,1002.72
2017-08-13T09:39:53.062Z,1002.92
2017-08-13T09:40:53.082Z,1003.01
2017-08-13T09:41:53.051Z,1002.90
2017-08-13T09:42:53.099Z,1002.89
2017-08-13T09:43:53.096Z,1002.97
2017-08-13T09:44:53.620Z,1002.91
2017-08-13T09:45:53.068Z,1002.93
2017-08-13T09:46:53.147Z,1002.91
2017-08-13T09:47:53.599Z,1002.91
2017-08-13T09:48:53.718Z,1003.01
2017-08-13T09:49:53.075Z,1002.77
2017-08-13T09:50:53.285Z,1002.47
2017-08-13T09:51:53.199Z,1002.59
2017-08-13T09:52:53.603Z,1002.52
2017-08-13T09:53:54.613Z,1002.41
2017-08-13T09:54:53.030Z,1002.58
2017-08-13T09:55:53.090Z,1002.78
2017-08-13T09:56:53.164Z,1002.62
2017-08-13T09:57:53.172Z,1002.52
2017-08-13T09:58:53.614Z,1002.57
2017-08-13T09:59:53.035Z,1002.61
2017-08-13T10:00:53.069Z,1002.87
2017-08-13T10:01:53.062Z,1002.92
2017-08-13T10:02:53.624Z,1003.07
2017-08-13T10:03:53.059Z,1003.12
2017-08-13T10:04:53.103Z,1002.98
2017-08-13T10:05:53.075Z,1002.80
2017-08-13T10:06:53.317Z,1002.98
2017-08-13T10:07:53.098Z,1002.64
2017-08-13T10:08:53.071Z,1002.72
2017-08-13T10:09:53.040Z,1002.69
2017-08-13T10:10:53.109Z,1002.64
2017-08-13T10:11:53.094Z,1002.76
2017-08-13T10:12:53.082Z,1002.72
2017-08-13T10:13:53.003Z,1002.72
2017-08-13T10:14:53.061Z,1002.58
2017-08-13T10:15:53.664Z,1002.73
2017-08-13T10:16:53.714Z,1002.82
2017-08-13T10:17:53.648Z,1002.76
2017-08-13T10:18:53.052Z,1002.68
2017-08-13T10:19:53.076Z,1002.65
2017-08-13T10:20:53.044Z,1002.49
2017-08-13T10:21:53.105Z,1002.43
2017-08-13T10:22:53.102Z,1002.65
2017-08-13T10:23:53.048Z,1002.42
2017-08-13T10:24:53.675Z,1002.40
2017-08-13T10:25:53.027Z,1002.32
2017-08-13T10:26:53.194Z,1002.65
2017-08-13T10:27:53.083Z,1002.53
2017-08-13T10:28:53.037Z,1002.34
2017-08-13T10:29:53.010Z,1002.38
2017-08-13T10:30:53.696Z,1002.62
2017-08-13T10:31:53.671Z,1002.62
2017-08-13T10:32:53.035Z,1002.58
2017-08-13T10:33:53.073Z,1002.67
2017-08-13T10:34:53.066Z,1002.89
2017-08-13T10:35:54.732Z,1002.38
2017-08-13T10:36:53.093Z,1002.41
2017-08-13T10:37:53.396Z,1002.53
2017-08-13T10:38:53.079Z,1002.48
2017-08-13T10:39:53.046Z,1002.66
2017-08-13T10:40:53.686Z,1002.76
2017-08-13T10:41:53.135Z,1002.63
2017-08-13T10:42:53.072Z,1002.75
2017-08-13T10:43:53.093Z,1002.94
2017-08-13T10:44:53.035Z,1003.08
2017-08-13T10:45:53.079Z,1003.15
2017-08-13T10:46:53.005Z,1003.52
2017-08-13T10:47:53.392Z,1003.55
2017-08-13T10:48:53.732Z,1003.47
2017-08-13T10:49:53.701Z,1003.41
2017-08-13T10:50:53.036Z,1003.30
2017-08-13T10:51:53.703Z,1003.24
2017-08-13T10:52:53.064Z,1003.01
2017-08-13T10:53:53.046Z,1002.98
2017-08-13T10:54:53.058Z,1003.07
2017-08-13T10:55:53.055Z,1002.69
2017-08-13T10:56:53.711Z,1002.63
2017-08-13T10:57:53.082Z,1002.49
2017-08-13T10:58:53.073Z,1002.42
2017-08-13T10:59:52.998Z,1002.30
2017-08-13T11:00:53.109Z,1002.25
2017-08-13T11:01:53.061Z,1002.06
2017-08-13T11:02:53.158Z,1002.06
2017-08-13T11:03:53.107Z,1002.01
2017-08-13T11:04:53.076Z,1002.20
2017-08-13T11:05:53.062Z,1002.30
2017-08-13T11:06:53.004Z,1002.37
2017-08-13T11:07:53.442Z,1002.49
2017-08-13T11:08:53.733Z,1002.45
2017-08-13T11:09:53.056Z,1002.27
2017-08-13T11:10:53.066Z,1002.29
2017-08-13T11:11:53.094Z,1002.13
2017-08-13T11:12:54.237Z,1002.45
2017-08-13T11:13:53.746Z,1002.42
2017-08-13T11:14:53.760Z,1002.45
2017-08-13T11:15:53.747Z,1002.44
2017-08-13T11:16:53.851Z,1002.62
2017-08-13T11:17:53.050Z,1002.62
2017-08-13T11:18:53.089Z,1002.45
2017-08-13T11:19:53.159Z,1002.45
2017-08-13T11:20:53.101Z,1002.62
2017-08-13T11:21:53.058Z,1002.87
2017-08-13T11:22:53.754Z,1002.50
2017-08-13T11:23:53.109Z,1002.58
2017-08-13T11:24:53.119Z,1002.53
2017-08-13T11:25:53.015Z,1002.67
2017-08-13T11:26:53.044Z,1002.44
2017-08-13T11:27:53.764Z,1002.67
2017-08-13T11:28:53.111Z,1002.44
2017-08-13T11:29:53.100Z,1002.85
2017-08-13T11:30:53.099Z,1003.00
2017-08-13T11:31:53.051Z,1003.13
2017-08-13T11:32:53.058Z,1003.11
2017-08-13T11:33:53.092Z,1002.77
2017-08-13T11:34:53.120Z,1002.78
2017-08-13T11:35:53.012Z,1002.59
2017-08-13T11:36:52.987Z,1002.63
2017-08-13T11:37:53.030Z,1002.53
2017-08-13T11:38:53.074Z,1002.75
2017-08-13T11:39:52.983Z,1002.77
2017-08-13T11:40:53.063Z,1002.79
2017-08-13T11:41:53.057Z,1002.76
2017-08-13T11:42:54.801Z,1002.95
2017-08-13T11:43:53.049Z,1002.81
2017-08-13T11:44:53.032Z,1002.69
2017-08-13T11:45:53.102Z,1002.63
2017-08-13T11:46:53.047Z,1002.54
2017-08-13T11:47:52.986Z,1002.39
2017-08-13T11:48:53.102Z,1002.24
2017-08-13T11:49:52.997Z,1002.37
2017-08-13T11:50:53.806Z,1002.48
2017-08-13T11:51:53.020Z,1002.54
2017-08-13T11:52:53.016Z,1002.64
2017-08-13T11:53:53.092Z,1002.57
2017-08-13T11:54:53.053Z,1002.37
2017-08-13T11:55:53.820Z,1002.41
2017-08-13T11:56:53.045Z,1002.44
2017-08-13T11:57:53.016Z,1002.44
2017-08-13T11:58:53.820Z,1002.50
2017-08-13T11:59:53.034Z,1002.41
2017-08-13T12:00:53.135Z,1002.54
2017-08-13T12:01:53.015Z,1002.47
2017-08-13T12:02:54.339Z,1002.70
2017-08-13T12:03:53.009Z,1002.77
2017-08-13T12:04:53.082Z,1002.74
2017-08-13T12:05:53.100Z,1002.54